KMVE

Details ICAO KMVE
Name MONTEVIDEO CHIPPEWA CO
Region United States
Timezone America/Chicago (UTC-6.0)
Plans Departing 2
Arriving 0
Stats Elevation 1,034 ft / 315 m (AMSL)
Location 44.969314° -95.710402°
Runways 2
Magnetic Variation 2.187° E
Sunrise 2017-12-13 13:54:13 UTC / 2017-12-13 07:54:13 Local
Sunset 2017-12-13 22:42:57 UTC / 2017-12-13 16:42:57 Local
Advertisement - Login to hide

Runways

ID Width Length Bearing (true) Bearing (mag) Surface Threshold Offset Overrun Length
03 165 ft / 50 m 2,399 ft / 731 m 39.72° 37.53° Grass 0 ft / 0 m 0 ft / 0 m
14 75 ft / 23 m 3,997 ft / 1,218 m 142.83° 140.64° Asphalt 0 ft / 0 m 0 ft / 0 m
21 165 ft / 50 m 2,399 ft / 731 m 219.72° 217.53° Grass 0 ft / 0 m 0 ft / 0 m
32 75 ft / 23 m 3,997 ft / 1,218 m 322.83° 320.64° Asphalt 0 ft / 0 m 0 ft / 0 m

Map

Weather


0- 5 10 15 20 25 30 35+ Temperature / ° C

Clouds and Precipitation
Forecast for 2017-12-14 00:00 UTC. Updated an hour ago

Ground ~20,000 ft ~40,000 ft Winds

METAR

KMVE 132215Z AUTO 01015G25KT 10SM OVC018 M02/M04 A2982 RMK AO2

TAF

Not found

Frequencies

Unicom 122.80 MHz CTAF/UNICOM
Warning: Do not use this data for real-world aviation or navigation. No guarantee of current accuracy is given.